createdAt,value
2023-01-19T00:00:59.812Z,523.00
2023-01-19T00:01:59.740Z,524.00
2023-01-19T00:02:59.760Z,524.00
2023-01-19T00:03:59.683Z,525.00
2023-01-19T00:04:59.687Z,525.00
2023-01-19T00:05:59.718Z,525.00
2023-01-19T00:06:59.607Z,524.00
2023-01-19T00:07:59.949Z,528.00
2023-01-19T00:08:59.573Z,527.00
2023-01-19T00:09:59.549Z,526.00
2023-01-19T00:10:59.531Z,521.00
2023-01-19T00:11:59.498Z,521.00
2023-01-19T00:12:59.765Z,522.00
2023-01-19T00:13:59.449Z,519.00
2023-01-19T00:14:59.465Z,521.00
2023-01-19T00:15:59.477Z,520.00
2023-01-19T00:16:59.435Z,520.00
2023-01-19T00:17:59.399Z,518.00
2023-01-19T00:18:59.364Z,517.00
2023-01-19T00:19:59.341Z,518.00
2023-01-19T00:20:59.350Z,519.00
2023-01-19T00:21:59.316Z,521.00
2023-01-19T00:22:59.612Z,521.00
2023-01-19T00:23:59.255Z,523.00
2023-01-19T00:24:59.239Z,524.00
2023-01-19T00:25:59.219Z,524.00
2023-01-19T00:26:59.212Z,524.00
2023-01-19T00:28:01.347Z,520.00
2023-01-19T00:28:59.310Z,520.00
2023-01-19T00:29:59.268Z,519.00
2023-01-19T00:30:59.256Z,519.00
2023-01-19T00:31:59.246Z,519.00
2023-01-19T00:32:59.848Z,518.00
2023-01-19T00:33:59.196Z,518.00
2023-01-19T00:34:59.169Z,519.00
2023-01-19T00:35:59.163Z,518.00
2023-01-19T00:36:59.145Z,518.00
2023-01-19T00:37:59.108Z,518.00
2023-01-19T00:38:59.096Z,516.00
2023-01-19T00:39:59.082Z,514.00
2023-01-19T00:40:59.069Z,515.00
2023-01-19T00:41:59.050Z,512.00
2023-01-19T00:42:59.226Z,511.00
2023-01-19T00:43:58.962Z,510.00
2023-01-19T00:44:58.950Z,508.00
2023-01-19T00:45:58.937Z,507.00
2023-01-19T00:46:58.898Z,507.00
2023-01-19T01:53:57.360Z,507.00
2023-01-19T07:11:24.922Z,985.00
2023-01-19T07:12:00.266Z,1014.00
2023-01-19T07:17:14.254Z,1092.00
2023-01-19T07:22:54.498Z,1129.00
2023-01-19T07:23:56.262Z,1152.00
2023-01-19T07:24:54.700Z,1174.00
2023-01-19T07:25:54.537Z,1183.00
2023-01-19T07:29:54.465Z,1179.00
2023-01-19T07:30:55.103Z,1194.00
2023-01-19T07:31:55.681Z,1199.00
2023-01-19T07:32:55.376Z,1206.00
2023-01-19T07:34:53.007Z,1231.00
2023-01-19T07:35:54.975Z,1193.00
2023-01-19T07:36:54.659Z,1195.00
2023-01-19T07:37:53.524Z,1174.00
2023-01-19T07:38:54.513Z,1159.00
2023-01-19T07:39:54.031Z,1140.00
2023-01-19T07:40:53.857Z,1257.00
2023-01-19T07:41:52.746Z,1241.00
2023-01-19T07:42:53.462Z,1062.00
2023-01-19T07:43:52.466Z,998.00
2023-01-19T07:44:53.344Z,1013.00
2023-01-19T07:45:52.624Z,1013.00
2023-01-19T07:46:51.865Z,1020.00
2023-01-19T07:47:52.253Z,1031.00
2023-01-19T07:48:52.687Z,1042.00
2023-01-19T07:49:52.098Z,1134.00
2023-01-19T07:50:51.929Z,1121.00
2023-01-19T07:51:51.830Z,1085.00
2023-01-19T07:52:52.119Z,1055.00
2023-01-19T07:53:53.133Z,1010.00
2023-01-19T07:54:52.102Z,1006.00
2023-01-19T07:55:52.583Z,996.00
2023-01-19T07:56:52.469Z,998.00
2023-01-19T07:57:51.821Z,997.00
2023-01-19T07:59:52.189Z,992.00
2023-01-19T08:00:54.130Z,990.00
2023-01-19T08:01:52.227Z,994.00
2023-01-19T08:02:52.645Z,996.00
2023-01-19T08:05:52.778Z,979.00
2023-01-19T08:31:52.734Z,981.00
2023-01-19T08:38:52.510Z,1079.00
2023-01-19T08:43:52.348Z,899.00
2023-01-19T08:45:51.882Z,975.00
2023-01-19T09:17:51.055Z,1565.00
2023-01-19T09:42:50.439Z,1669.00
2023-01-19T09:43:50.429Z,1645.00
2023-01-19T09:44:50.458Z,1631.00
2023-01-19T09:45:50.419Z,1684.00
2023-01-19T09:46:50.483Z,1673.00
2023-01-19T09:47:50.397Z,1674.00
2023-01-19T09:48:50.360Z,1660.00
2023-01-19T09:49:50.374Z,1653.00
2023-01-19T09:50:50.336Z,1644.00
2023-01-19T09:51:50.313Z,1610.00
2023-01-19T09:52:50.281Z,1595.00
2023-01-19T09:53:50.264Z,1602.00
2023-01-19T09:54:50.258Z,1594.00
2023-01-19T09:55:50.372Z,1605.00
2023-01-19T09:56:52.770Z,1607.00
2023-01-19T09:57:50.207Z,1602.00
2023-01-19T09:58:50.180Z,1611.00
2023-01-19T09:59:50.179Z,1618.00
2023-01-19T10:00:50.233Z,1617.00
2023-01-19T10:01:50.195Z,1618.00
2023-01-19T10:02:50.134Z,1635.00
2023-01-19T10:03:50.084Z,1659.00
2023-01-19T10:04:50.075Z,1657.00
2023-01-19T10:05:50.044Z,1659.00
2023-01-19T10:06:50.107Z,1668.00
2023-01-19T10:07:49.997Z,1676.00
2023-01-19T10:08:49.982Z,1674.00
2023-01-19T10:09:49.943Z,1681.00
2023-01-19T10:10:49.959Z,1674.00
2023-01-19T10:11:53.523Z,1649.00
2023-01-19T10:12:49.895Z,1594.00
2023-01-19T10:13:49.908Z,1554.00
2023-01-19T10:14:49.881Z,1510.00
2023-01-19T10:15:49.850Z,1484.00
2023-01-19T10:16:49.816Z,1432.00
2023-01-19T10:17:49.795Z,1361.00
2023-01-19T10:18:49.819Z,1332.00
2023-01-19T10:19:49.758Z,1310.00
2023-01-19T10:20:49.701Z,1291.00
2023-01-19T10:21:49.689Z,1263.00
2023-01-19T10:22:49.678Z,1243.00
2023-01-19T10:23:49.655Z,1230.00
2023-01-19T10:24:49.640Z,1207.00
2023-01-19T10:25:49.705Z,1197.00
2023-01-19T10:26:49.605Z,1176.00
2023-01-19T10:27:49.628Z,1158.00
2023-01-19T10:28:49.562Z,1135.00
2023-01-19T10:29:49.560Z,1089.00
2023-01-19T10:30:49.599Z,1079.00
2023-01-19T10:31:49.534Z,1072.00
2023-01-19T10:32:49.489Z,1062.00
2023-01-19T10:33:49.476Z,1043.00
2023-01-19T10:34:49.472Z,1029.00
2023-01-19T10:35:49.435Z,1014.00
2023-01-19T10:36:49.427Z,1006.00
2023-01-19T10:37:49.406Z,998.00
2023-01-19T10:38:49.377Z,988.00
2023-01-19T10:39:49.397Z,980.00
2023-01-19T10:40:49.381Z,979.00
2023-01-19T10:41:49.324Z,1024.00
2023-01-19T10:42:49.342Z,1022.00
2023-01-19T10:43:49.323Z,1103.00
2023-01-19T10:44:49.291Z,1123.00
2023-01-19T10:45:49.425Z,1148.00
2023-01-19T10:46:49.337Z,1187.00
2023-01-19T10:47:49.296Z,1239.00
2023-01-19T10:48:49.232Z,1264.00
2023-01-19T10:49:49.241Z,1272.00
2023-01-19T10:50:49.234Z,1285.00
2023-01-19T10:51:49.283Z,1292.00
2023-01-19T10:52:49.164Z,1297.00
2023-01-19T10:53:49.202Z,1300.00
2023-01-19T10:54:49.243Z,1309.00
2023-01-19T10:55:49.131Z,1316.00
2023-01-19T10:56:49.113Z,1322.00
2023-01-19T10:57:49.116Z,1334.00
2023-01-19T10:58:49.067Z,1337.00
2023-01-19T10:59:49.096Z,1331.00
2023-01-19T11:00:49.152Z,1273.00
2023-01-19T11:01:49.272Z,1252.00
2023-01-19T11:02:49.028Z,1230.00
2023-01-19T11:03:48.981Z,1222.00
2023-01-19T11:04:50.055Z,1206.00
2023-01-19T11:05:48.950Z,1192.00
2023-01-19T11:06:48.923Z,1181.00
2023-01-19T11:07:48.922Z,1170.00
2023-01-19T11:10:49.343Z,1135.00
2023-01-19T17:20:43.375Z,671.00
2023-01-19T17:21:43.393Z,672.00
2023-01-19T17:22:43.363Z,673.00
2023-01-19T17:23:43.363Z,673.00
2023-01-19T17:24:43.394Z,676.00
2023-01-19T17:25:43.338Z,676.00
2023-01-19T17:26:43.345Z,673.00
2023-01-19T17:27:43.335Z,674.00
2023-01-19T17:28:43.320Z,674.00
2023-01-19T17:29:43.299Z,677.00
2023-01-19T17:30:43.362Z,677.00
2023-01-19T17:31:43.327Z,674.00
2023-01-19T17:32:43.272Z,677.00
2023-01-19T17:33:43.260Z,676.00
2023-01-19T17:34:43.236Z,675.00
2023-01-19T17:35:43.253Z,674.00
2023-01-19T17:36:43.255Z,674.00
2023-01-19T17:37:43.223Z,676.00
2023-01-19T17:38:43.265Z,678.00
2023-01-19T17:39:43.206Z,676.00
2023-01-19T17:40:43.209Z,674.00
2023-01-19T17:41:43.204Z,674.00
2023-01-19T17:42:43.184Z,675.00
2023-01-19T17:43:43.216Z,673.00
2023-01-19T17:44:43.223Z,677.00
2023-01-19T17:45:43.161Z,678.00
2023-01-19T17:46:43.206Z,681.00
2023-01-19T17:47:43.143Z,681.00
2023-01-19T17:48:43.115Z,683.00
2023-01-19T17:49:43.167Z,681.00
2023-01-19T17:50:43.109Z,683.00
2023-01-19T17:51:43.120Z,685.00
2023-01-19T17:52:43.105Z,688.00
2023-01-19T17:53:43.036Z,689.00
2023-01-19T17:54:43.036Z,690.00
2023-01-19T17:55:43.081Z,693.00
2023-01-19T17:56:43.015Z,692.00
2023-01-19T17:57:43.026Z,692.00
2023-01-19T17:58:42.995Z,690.00
2023-01-19T17:59:42.964Z,689.00
2023-01-19T18:00:42.982Z,690.00
2023-01-19T18:01:43.042Z,694.00
2023-01-19T18:02:42.992Z,695.00
2023-01-19T18:03:42.968Z,695.00
2023-01-19T18:04:42.952Z,697.00
2023-01-19T18:05:42.921Z,698.00
2023-01-19T18:06:42.934Z,698.00
2023-01-19T18:07:42.927Z,698.00
2023-01-19T18:08:42.924Z,701.00
2023-01-19T18:09:42.911Z,701.00
2023-01-19T18:10:42.886Z,700.00
2023-01-19T18:11:42.899Z,704.00
2023-01-19T18:12:42.895Z,706.00
2023-01-19T18:13:42.844Z,707.00
2023-01-19T18:14:42.844Z,708.00
2023-01-19T18:15:42.847Z,708.00
2023-01-19T18:16:42.845Z,709.00
2023-01-19T18:17:42.831Z,710.00
2023-01-19T18:18:42.812Z,711.00
2023-01-19T18:19:42.789Z,712.00
2023-01-19T18:20:42.784Z,715.00
2023-01-19T18:21:42.764Z,713.00
2023-01-19T18:22:42.779Z,711.00
2023-01-19T18:23:42.760Z,711.00
2023-01-19T18:24:42.753Z,709.00
2023-01-19T18:25:42.723Z,710.00
2023-01-19T18:26:42.734Z,709.00
2023-01-19T18:27:42.693Z,708.00
2023-01-19T18:28:42.709Z,708.00
2023-01-19T18:29:42.654Z,708.00
2023-01-19T18:30:42.679Z,708.00
2023-01-19T18:31:42.700Z,710.00
2023-01-19T18:32:42.630Z,708.00
2023-01-19T18:33:42.634Z,707.00
2023-01-19T18:34:42.616Z,705.00
2023-01-19T18:35:42.608Z,706.00
2023-01-19T18:36:42.592Z,710.00
2023-01-19T18:37:42.616Z,711.00
2023-01-19T18:38:42.595Z,710.00
2023-01-19T18:39:42.571Z,710.00
2023-01-19T18:40:42.570Z,710.00
2023-01-19T18:41:42.555Z,708.00
2023-01-19T18:42:42.580Z,708.00
2023-01-19T18:43:42.539Z,708.00
2023-01-19T18:44:42.535Z,709.00
2023-01-19T18:45:42.515Z,712.00
2023-01-19T18:46:42.544Z,715.00
2023-01-19T18:47:42.511Z,713.00
2023-01-19T18:48:42.520Z,714.00
2023-01-19T18:49:42.474Z,711.00
2023-01-19T18:50:42.489Z,708.00
2023-01-19T18:51:42.498Z,711.00
2023-01-19T18:52:42.468Z,710.00
2023-01-19T18:53:42.453Z,705.00
2023-01-19T18:54:42.444Z,705.00
2023-01-19T18:55:42.432Z,704.00
2023-01-19T18:56:42.409Z,701.00
2023-01-19T18:57:42.433Z,704.00
2023-01-19T18:58:42.394Z,705.00
2023-01-19T18:59:42.400Z,706.00
2023-01-19T19:00:42.399Z,707.00
2023-01-19T19:01:42.507Z,709.00
2023-01-19T19:02:42.382Z,708.00
2023-01-19T19:03:42.365Z,707.00
2023-01-19T19:04:42.357Z,704.00
2023-01-19T19:05:42.366Z,704.00
2023-01-19T19:06:42.318Z,703.00
2023-01-19T19:07:42.358Z,703.00
2023-01-19T19:08:42.332Z,705.00
2023-01-19T19:09:42.285Z,703.00
2023-01-19T19:10:42.313Z,709.00
2023-01-19T19:11:42.302Z,713.00
2023-01-19T19:12:42.279Z,716.00
2023-01-19T19:13:42.267Z,719.00
2023-01-19T19:14:42.261Z,717.00
2023-01-19T19:15:42.319Z,720.00
2023-01-19T19:16:42.232Z,721.00
2023-01-19T19:17:42.267Z,722.00
2023-01-19T19:18:42.227Z,723.00
2023-01-19T19:19:42.226Z,729.00
2023-01-19T19:20:42.240Z,730.00
2023-01-19T19:21:42.193Z,730.00
2023-01-19T19:22:42.173Z,731.00
2023-01-19T19:23:42.187Z,732.00
2023-01-19T19:24:42.180Z,736.00
2023-01-19T19:25:42.149Z,738.00
2023-01-19T19:26:42.141Z,739.00
2023-01-19T19:27:42.131Z,741.00
2023-01-19T19:28:42.128Z,745.00
2023-01-19T19:29:42.115Z,746.00
2023-01-19T19:30:42.134Z,748.00
2023-01-19T19:31:42.143Z,750.00
2023-01-19T19:32:42.110Z,750.00
2023-01-19T19:33:42.099Z,749.00
2023-01-19T19:34:42.091Z,752.00
2023-01-19T19:35:42.079Z,754.00
2023-01-19T19:36:42.044Z,756.00
2023-01-19T19:37:42.058Z,757.00
2023-01-19T19:38:42.031Z,760.00
2023-01-19T19:39:42.022Z,759.00
2023-01-19T19:40:42.020Z,757.00
2023-01-19T19:41:42.012Z,753.00
2023-01-19T19:42:41.991Z,751.00
2023-01-19T19:43:42.023Z,753.00
2023-01-19T19:44:41.978Z,751.00
2023-01-19T19:45:41.937Z,750.00
2023-01-19T19:46:41.959Z,752.00
2023-01-19T19:47:41.924Z,751.00
2023-01-19T19:48:41.928Z,749.00
2023-01-19T19:49:41.916Z,751.00
2023-01-19T19:50:41.923Z,753.00
2023-01-19T19:51:41.895Z,755.00
2023-01-19T19:52:41.889Z,756.00
2023-01-19T19:53:41.865Z,751.00
2023-01-19T19:54:41.854Z,752.00
2023-01-19T19:55:41.835Z,747.00
2023-01-19T19:56:41.833Z,751.00
2023-01-19T19:57:41.861Z,751.00
2023-01-19T19:58:41.927Z,753.00
2023-01-19T19:59:41.788Z,756.00
2023-01-19T20:00:41.763Z,757.00
2023-01-19T20:01:41.879Z,754.00
2023-01-19T20:02:41.745Z,751.00
2023-01-19T20:03:41.745Z,751.00
2023-01-19T20:04:41.813Z,750.00
2023-01-19T20:05:41.722Z,751.00
2023-01-19T20:06:42.643Z,750.00
2023-01-19T20:07:41.690Z,751.00
2023-01-19T20:08:41.684Z,750.00
2023-01-19T20:09:41.667Z,750.00
2023-01-19T20:10:41.670Z,749.00
2023-01-19T20:11:41.659Z,749.00
2023-01-19T20:12:41.660Z,754.00
2023-01-19T20:13:41.637Z,755.00
2023-01-19T20:14:41.636Z,758.00
2023-01-19T20:15:41.763Z,759.00
2023-01-19T20:16:41.578Z,757.00
2023-01-19T20:17:41.578Z,756.00
2023-01-19T20:18:41.576Z,756.00
2023-01-19T20:19:41.567Z,757.00
2023-01-19T20:20:41.571Z,758.00
2023-01-19T20:21:41.564Z,758.00
2023-01-19T20:22:41.535Z,756.00
2023-01-19T20:23:41.546Z,753.00
2023-01-19T20:24:41.524Z,752.00
2023-01-19T20:25:41.532Z,756.00
2023-01-19T20:26:41.498Z,755.00
2023-01-19T20:27:42.709Z,754.00
2023-01-19T20:28:41.505Z,758.00
2023-01-19T20:29:41.483Z,759.00
2023-01-19T20:30:41.506Z,761.00
2023-01-19T20:31:41.504Z,764.00
2023-01-19T20:32:41.438Z,763.00
2023-01-19T20:33:41.447Z,763.00
2023-01-19T20:34:41.419Z,760.00
2023-01-19T20:35:41.396Z,759.00
2023-01-19T20:36:41.397Z,763.00
2023-01-19T20:37:41.373Z,765.00
2023-01-19T20:38:41.376Z,767.00
2023-01-19T20:39:41.366Z,770.00
2023-01-19T20:40:41.336Z,774.00
2023-01-19T20:41:41.311Z,775.00
2023-01-19T20:42:41.353Z,773.00
2023-01-19T20:43:41.293Z,769.00
2023-01-19T20:44:41.329Z,766.00
2023-01-19T20:45:41.307Z,768.00
2023-01-19T20:46:41.285Z,768.00
2023-01-19T20:47:41.246Z,767.00
2023-01-19T20:48:41.245Z,767.00
2023-01-19T20:49:41.252Z,768.00
2023-01-19T20:50:41.223Z,766.00
2023-01-19T20:51:41.206Z,768.00
2023-01-19T20:52:41.196Z,770.00
2023-01-19T20:53:41.187Z,769.00
2023-01-19T20:54:41.178Z,768.00
2023-01-19T20:55:41.153Z,770.00
2023-01-19T20:56:41.179Z,768.00
2023-01-19T20:57:41.121Z,767.00
2023-01-19T20:58:41.107Z,771.00
2023-01-19T20:59:41.119Z,772.00
2023-01-19T21:00:41.104Z,770.00
2023-01-19T21:01:41.278Z,770.00
2023-01-19T21:02:41.134Z,772.00
2023-01-19T21:03:41.040Z,773.00
2023-01-19T21:04:41.037Z,770.00
2023-01-19T21:05:41.023Z,775.00
2023-01-19T21:06:40.998Z,772.00
2023-01-19T21:07:40.996Z,773.00
2023-01-19T21:08:40.974Z,772.00
2023-01-19T21:09:40.973Z,773.00
2023-01-19T21:10:40.968Z,773.00
2023-01-19T21:11:40.982Z,768.00
2023-01-19T21:12:40.928Z,768.00
2023-01-19T21:13:40.932Z,769.00
2023-01-19T21:14:40.934Z,767.00
2023-01-19T21:15:40.895Z,766.00
2023-01-19T21:16:40.897Z,768.00
2023-01-19T21:17:40.884Z,770.00
2023-01-19T21:18:40.867Z,771.00
2023-01-19T21:19:40.892Z,771.00
2023-01-19T21:20:40.866Z,769.00
2023-01-19T21:21:40.846Z,770.00
2023-01-19T21:22:40.812Z,769.00
2023-01-19T21:23:40.814Z,768.00
2023-01-19T21:24:42.128Z,769.00
2023-01-19T21:25:40.793Z,766.00
2023-01-19T21:26:40.761Z,765.00
2023-01-19T21:27:40.754Z,766.00
2023-01-19T21:28:40.726Z,768.00
2023-01-19T21:29:40.731Z,768.00
2023-01-19T21:30:40.756Z,767.00
2023-01-19T21:31:40.760Z,767.00
2023-01-19T21:32:40.709Z,769.00
2023-01-19T21:33:40.687Z,772.00
2023-01-19T21:34:40.659Z,773.00
2023-01-19T21:35:40.666Z,773.00
2023-01-19T21:36:40.642Z,772.00
2023-01-19T21:37:40.641Z,770.00
2023-01-19T21:38:40.595Z,768.00
2023-01-19T21:39:40.579Z,769.00
2023-01-19T21:40:40.585Z,769.00
2023-01-19T21:41:40.574Z,771.00
2023-01-19T21:42:40.557Z,770.00
2023-01-19T21:43:40.511Z,772.00
2023-01-19T21:44:40.484Z,773.00
2023-01-19T21:45:42.811Z,776.00
2023-01-19T21:46:40.613Z,778.00
2023-01-19T21:47:40.601Z,782.00
2023-01-19T21:48:40.603Z,781.00
2023-01-19T21:49:40.569Z,783.00
2023-01-19T21:50:40.578Z,784.00
2023-01-19T21:51:40.561Z,779.00
2023-01-19T21:52:40.558Z,779.00
2023-01-19T21:53:40.531Z,775.00
2023-01-19T21:54:40.530Z,774.00
2023-01-19T21:55:40.540Z,770.00
2023-01-19T21:56:40.542Z,771.00
2023-01-19T21:57:40.498Z,770.00
2023-01-19T21:58:40.499Z,772.00
2023-01-19T21:59:40.469Z,771.00
2023-01-19T22:00:40.551Z,772.00
2023-01-19T22:01:40.594Z,772.00
2023-01-19T22:02:41.134Z,772.00
2023-01-19T22:03:40.525Z,772.00
2023-01-19T22:04:40.442Z,771.00
2023-01-19T22:05:40.422Z,774.00
2023-01-19T22:06:40.413Z,778.00
2023-01-19T22:07:40.405Z,775.00
2023-01-19T22:08:40.407Z,772.00
2023-01-19T22:09:40.386Z,771.00
2023-01-19T22:10:40.394Z,773.00
2023-01-19T22:11:40.370Z,776.00
2023-01-19T22:12:40.398Z,776.00
2023-01-19T22:13:40.348Z,775.00
2023-01-19T22:14:40.352Z,773.00
2023-01-19T22:15:40.355Z,770.00
2023-01-19T22:16:40.329Z,769.00
2023-01-19T22:17:40.300Z,767.00
2023-01-19T22:18:40.294Z,766.00
2023-01-19T22:19:40.303Z,763.00
2023-01-19T22:20:40.290Z,763.00
2023-01-19T22:21:40.272Z,765.00
2023-01-19T22:22:40.279Z,765.00
2023-01-19T22:23:40.276Z,766.00
2023-01-19T22:24:40.266Z,764.00
2023-01-19T22:25:40.273Z,761.00
2023-01-19T22:26:40.265Z,760.00
2023-01-19T22:27:40.251Z,761.00
2023-01-19T22:28:40.232Z,761.00
2023-01-19T22:29:40.237Z,760.00
2023-01-19T22:30:40.331Z,761.00
2023-01-19T22:31:40.308Z,763.00
2023-01-19T22:32:40.218Z,762.00
2023-01-19T22:33:40.234Z,762.00
2023-01-19T22:34:40.230Z,763.00
2023-01-19T22:35:40.198Z,762.00
2023-01-19T22:36:40.214Z,761.00
2023-01-19T22:37:40.191Z,762.00
2023-01-19T22:38:40.317Z,761.00
2023-01-19T22:39:40.185Z,763.00
2023-01-19T22:40:40.186Z,761.00
2023-01-19T22:41:40.223Z,760.00
2023-01-19T22:42:40.178Z,761.00
2023-01-19T22:43:40.168Z,758.00
2023-01-19T22:44:40.167Z,759.00
2023-01-19T22:45:40.287Z,757.00
2023-01-19T22:46:40.164Z,756.00
2023-01-19T22:47:40.121Z,753.00
2023-01-19T22:48:40.130Z,754.00
2023-01-19T22:49:40.102Z,752.00
2023-01-19T22:50:40.118Z,752.00
2023-01-19T22:51:40.132Z,754.00
2023-01-19T22:52:40.144Z,755.00
2023-01-19T22:53:40.123Z,754.00
2023-01-19T22:54:40.131Z,752.00
2023-01-19T22:55:40.115Z,751.00
2023-01-19T22:56:40.132Z,752.00
2023-01-19T22:57:40.108Z,751.00
2023-01-19T22:58:40.117Z,751.00
2023-01-19T22:59:40.086Z,751.00
2023-01-19T23:00:40.086Z,750.00
2023-01-19T23:01:40.216Z,751.00
2023-01-19T23:02:40.069Z,750.00
2023-01-19T23:03:40.052Z,751.00
2023-01-19T23:04:40.057Z,753.00
2023-01-19T23:05:40.043Z,756.00
2023-01-19T23:06:40.054Z,755.00
2023-01-19T23:07:40.039Z,755.00
2023-01-19T23:08:40.026Z,754.00
2023-01-19T23:09:40.018Z,755.00
2023-01-19T23:10:40.045Z,754.00
2023-01-19T23:11:40.031Z,750.00
2023-01-19T23:12:40.002Z,749.00
2023-01-19T23:13:40.009Z,748.00
2023-01-19T23:14:39.968Z,749.00
2023-01-19T23:15:39.980Z,751.00
2023-01-19T23:16:39.991Z,750.00
2023-01-19T23:17:39.953Z,750.00
2023-01-19T23:18:39.936Z,749.00
2023-01-19T23:19:39.922Z,748.00
2023-01-19T23:20:39.931Z,749.00
2023-01-19T23:21:39.939Z,749.00
2023-01-19T23:22:39.920Z,753.00
2023-01-19T23:23:39.906Z,756.00
2023-01-19T23:24:39.921Z,754.00
2023-01-19T23:25:39.893Z,753.00
2023-01-19T23:26:39.892Z,751.00
2023-01-19T23:27:39.888Z,748.00
2023-01-19T23:28:39.855Z,749.00
2023-01-19T23:29:39.862Z,745.00
2023-01-19T23:30:39.905Z,746.00
2023-01-19T23:31:39.914Z,743.00
2023-01-19T23:32:39.837Z,744.00
2023-01-19T23:33:39.809Z,742.00
2023-01-19T23:34:39.837Z,744.00
2023-01-19T23:35:39.834Z,745.00
2023-01-19T23:36:39.798Z,746.00
2023-01-19T23:37:39.813Z,747.00
2023-01-19T23:38:39.800Z,749.00
2023-01-19T23:39:39.775Z,743.00
2023-01-19T23:40:39.773Z,744.00
2023-01-19T23:41:39.775Z,742.00
2023-01-19T23:42:39.768Z,739.00
2023-01-19T23:43:39.740Z,739.00
2023-01-19T23:44:39.753Z,738.00
2023-01-19T23:45:39.722Z,740.00
2023-01-19T23:46:39.723Z,742.00
2023-01-19T23:47:39.726Z,741.00
2023-01-19T23:48:39.719Z,739.00
2023-01-19T23:49:39.684Z,741.00
2023-01-19T23:50:39.687Z,739.00
2023-01-19T23:51:39.725Z,740.00
2023-01-19T23:52:39.701Z,739.00
2023-01-19T23:53:39.686Z,739.00
2023-01-19T23:54:39.690Z,737.00
2023-01-19T23:55:39.682Z,738.00
2023-01-19T23:56:39.677Z,735.00
2023-01-19T23:57:39.675Z,731.00
